Alma, New York
Current Conditions -  °F | °C
As of 9:56 AM on Wednesday 26 Nov 2014 (Local Time) from KELZ Reporting Station
Overcast Overcast  
Wind Chill: -6°   Ceiling: 1600
Heat Index: -1°   Visibility: 10mi
Dew Point: -6°   Wind: 10mph
Humidity: 72%   Direction: 80°E
Pressure: 30.07"   Gusts: NA
Location:  42.01°N, 78.06°W
Report Text: KELZ 261456Z AUTO 08009KT 10SM OVC016 M01/M06 A3007 RMK AO2 SLP207 T10111056 58010
Loading
Personal Weather Stations






























Interactive Weather Map New forecast layout! Learn more

10-Day Weather Forecast

Advertisements
Track Severe Weather on mobile